createdAt,value
2023-11-07T00:01:59.120Z,96728.34
2023-11-07T00:04:27.196Z,96725.16
2023-11-07T00:06:55.346Z,96722.38
2023-11-07T00:09:23.349Z,96723.19
2023-11-07T00:11:51.483Z,96717.53
2023-11-07T00:14:22.442Z,96723.53
2023-11-07T00:16:51.449Z,96727.78
2023-11-07T00:19:20.988Z,96735.97
2023-11-07T00:21:49.077Z,96736.56
2023-11-07T00:24:17.176Z,96741.75
2023-11-07T00:26:45.232Z,96743.25
2023-11-07T00:29:13.437Z,96734.63
2023-11-07T00:31:41.514Z,96740.19
2023-11-07T00:34:09.909Z,96738.31
2023-11-07T00:36:39.402Z,96743.63
2023-11-07T00:39:08.094Z,96739.16
2023-11-07T00:41:36.204Z,96748.06
2023-11-07T00:44:04.251Z,96743.16
2023-11-07T00:46:32.247Z,96747.44
2023-11-07T00:49:00.535Z,96746.16
2023-11-07T00:51:28.764Z,96743.41
2023-11-07T00:53:58.262Z,96757.81
2023-11-07T00:56:26.464Z,96752.53
2023-11-07T00:58:54.550Z,96751.72
2023-11-07T01:01:22.717Z,96756.84
2023-11-07T01:03:50.888Z,96760.66
2023-11-07T01:06:18.980Z,96765.56
2023-11-07T01:08:47.406Z,96769.31
2023-11-07T01:11:16.867Z,96770.50
2023-11-07T01:13:45.006Z,96764.50
2023-11-07T01:16:13.626Z,96756.84
2023-11-07T01:18:41.893Z,96757.66
2023-11-07T01:21:11.298Z,96756.44
2023-11-07T01:23:39.901Z,96759.31
2023-11-07T01:26:08.222Z,96753.44
2023-11-07T01:28:37.706Z,96758.97
2023-11-07T01:31:07.593Z,96765.75
2023-11-07T01:33:36.051Z,96751.63
2023-11-07T01:36:04.436Z,96754.59
2023-11-07T01:38:33.613Z,96752.66
2023-11-07T01:41:01.674Z,96760.75
2023-11-07T01:43:29.898Z,96760.00
2023-11-07T01:46:03.899Z,96753.91
2023-11-07T01:48:32.177Z,96756.59
2023-11-07T01:51:00.990Z,96753.44
2023-11-07T01:53:30.746Z,96758.13
2023-11-07T01:55:59.138Z,96756.03
2023-11-07T01:58:28.774Z,96755.75
2023-11-07T02:00:59.047Z,96754.66
2023-11-07T02:03:27.171Z,96752.44
2023-11-07T02:05:55.509Z,96749.41
2023-11-07T02:08:24.177Z,96739.75
2023-11-07T02:10:52.221Z,96741.81
2023-11-07T02:13:20.392Z,96748.75
2023-11-07T02:15:48.526Z,96748.09
2023-11-07T02:18:18.040Z,96741.66
2023-11-07T02:20:47.437Z,96744.25
2023-11-07T02:23:29.568Z,96745.84
2023-11-07T02:25:58.574Z,96743.50
2023-11-07T02:28:26.669Z,96747.00
2023-11-07T02:30:54.951Z,96750.50
2023-11-07T02:33:23.080Z,96749.41
2023-11-07T02:35:51.282Z,96748.63
2023-11-07T02:38:20.903Z,96748.09
2023-11-07T02:40:50.669Z,96749.56
2023-11-07T02:43:18.710Z,96754.69
2023-11-07T02:45:46.877Z,96753.09
2023-11-07T02:48:15.755Z,96759.81
2023-11-07T02:50:45.638Z,96755.63
2023-11-07T02:53:14.293Z,96754.88
2023-11-07T02:55:42.646Z,96750.22
2023-11-07T02:58:12.687Z,96750.28
2023-11-07T03:00:40.883Z,96754.03
2023-11-07T03:03:09.701Z,96748.66
2023-11-07T03:05:38.088Z,96745.47
2023-11-07T03:08:07.931Z,96742.50
2023-11-07T03:10:36.165Z,96745.03
2023-11-07T03:13:04.248Z,96746.19
2023-11-07T03:15:33.742Z,96745.66
2023-11-07T03:18:01.963Z,96749.00
2023-11-07T03:20:30.128Z,96748.72
2023-11-07T03:22:58.208Z,96743.03
2023-11-07T03:25:27.055Z,96743.19
2023-11-07T03:27:55.214Z,96750.09
2023-11-07T03:30:23.520Z,96751.88
2023-11-07T03:32:52.918Z,96750.72
2023-11-07T03:35:23.385Z,96754.22
2023-11-07T03:37:53.162Z,96755.28
2023-11-07T03:40:21.471Z,96749.94
2023-11-07T03:42:49.510Z,96754.69
2023-11-07T03:45:17.561Z,96753.06
2023-11-07T03:47:45.733Z,96755.78
2023-11-07T03:50:15.118Z,96752.88
2023-11-07T03:52:43.207Z,96750.22
2023-11-07T03:55:11.195Z,96754.25
2023-11-07T03:57:39.227Z,96752.88
2023-11-07T04:00:11.856Z,96753.09
2023-11-07T04:02:39.982Z,96754.94
2023-11-07T04:05:11.811Z,96756.03
2023-11-07T04:07:42.261Z,96763.81
2023-11-07T04:10:11.019Z,96763.25
2023-11-07T04:12:39.128Z,96761.94
2023-11-07T04:15:10.411Z,96766.00
2023-11-07T04:17:38.921Z,96774.50
2023-11-07T04:20:10.708Z,96766.25
2023-11-07T04:22:38.997Z,96762.25
2023-11-07T04:25:09.443Z,96783.41
2023-11-07T04:27:37.963Z,96780.44
2023-11-07T04:30:07.813Z,96767.59
2023-11-07T04:32:36.753Z,96775.91
2023-11-07T04:35:06.773Z,96774.06
2023-11-07T04:37:35.315Z,96784.97
2023-11-07T04:40:05.126Z,96771.53
2023-11-07T04:42:34.749Z,96774.41
2023-11-07T04:45:03.362Z,96773.03
2023-11-07T04:47:32.116Z,96767.63
2023-11-07T04:50:00.880Z,96766.53
2023-11-07T04:52:28.849Z,96762.25
2023-11-07T04:54:57.242Z,96773.22
2023-11-07T04:57:25.836Z,96772.22
2023-11-07T04:59:55.750Z,96774.06
2023-11-07T05:02:24.154Z,96770.81
2023-11-07T05:04:54.372Z,96763.81
2023-11-07T05:07:22.862Z,96763.31
2023-11-07T05:09:53.895Z,96770.28
2023-11-07T05:12:22.123Z,96768.66
2023-11-07T05:14:50.626Z,96769.75
2023-11-07T05:17:20.922Z,96774.50
2023-11-07T05:19:48.947Z,96772.63
2023-11-07T05:22:17.004Z,96777.72
2023-11-07T05:24:44.998Z,96782.25
2023-11-07T05:27:13.122Z,96781.47
2023-11-07T05:29:41.169Z,96775.03
2023-11-07T05:32:09.285Z,96770.75
2023-11-07T05:34:41.162Z,96771.28
2023-11-07T05:37:09.210Z,96775.28
2023-11-07T05:39:37.257Z,96778.72
2023-11-07T05:42:07.980Z,96771.81
2023-11-07T05:44:36.161Z,96776.91
2023-11-07T05:47:05.066Z,96771.34
2023-11-07T05:49:33.298Z,96771.63
2023-11-07T05:52:02.785Z,96771.63
2023-11-07T05:54:30.827Z,96777.50
2023-11-07T05:56:58.950Z,96781.97
2023-11-07T05:59:27.886Z,96782.50
2023-11-07T06:01:55.871Z,96791.03
2023-11-07T06:04:35.213Z,96794.28
2023-11-07T06:07:05.142Z,96800.19
2023-11-07T06:09:33.257Z,96795.41
2023-11-07T06:12:01.453Z,96789.78
2023-11-07T06:14:29.560Z,96790.94
2023-11-07T06:16:57.608Z,96783.66
2023-11-07T06:19:25.700Z,96781.56
2023-11-07T06:21:53.718Z,96786.34
2023-11-07T06:24:23.136Z,96787.94
2023-11-07T06:26:52.399Z,96798.09
2023-11-07T06:29:21.397Z,96787.88
2023-11-07T06:31:50.637Z,96784.19
2023-11-07T06:34:19.713Z,96787.16
2023-11-07T06:36:48.601Z,96796.78
2023-11-07T06:39:19.891Z,96799.69
2023-11-07T06:41:49.870Z,96802.06
2023-11-07T06:44:18.049Z,96815.75
2023-11-07T06:46:48.370Z,96808.00
2023-11-07T06:49:16.795Z,96804.59
2023-11-07T06:51:45.535Z,96816.88
2023-11-07T06:54:13.608Z,96819.03
2023-11-07T06:56:41.779Z,96825.72
2023-11-07T06:59:11.573Z,96819.63
2023-11-07T07:01:39.654Z,96830.81
2023-11-07T07:04:08.396Z,96826.47
2023-11-07T07:06:37.382Z,96830.75
2023-11-07T07:09:06.833Z,96827.25
2023-11-07T07:11:35.079Z,96827.59
2023-11-07T07:14:03.950Z,96826.78
2023-11-07T07:16:33.640Z,96816.31
2023-11-07T07:19:07.684Z,96819.16
2023-11-07T07:21:36.771Z,96815.16
2023-11-07T07:24:17.585Z,96805.94
2023-11-07T07:26:47.600Z,96810.72
2023-11-07T07:29:16.829Z,96813.31
2023-11-07T07:31:46.552Z,96811.66
2023-11-07T07:34:15.395Z,96804.16
2023-11-07T07:36:46.477Z,96805.81
2023-11-07T07:39:29.207Z,96798.25
2023-11-07T07:42:35.670Z,96797.09
2023-11-07T07:46:10.129Z,96803.69
2023-11-07T07:48:29.929Z,96806.28
2023-11-07T07:51:21.473Z,96803.34
2023-11-07T08:20:00.840Z,96818.78
2023-11-07T08:23:08.089Z,96811.59
2023-11-07T08:26:16.408Z,96823.44
2023-11-07T08:29:31.504Z,96827.03
2023-11-07T08:41:22.216Z,96824.00
2023-11-07T08:44:10.442Z,96822.94
2023-11-07T08:46:38.602Z,96823.34
2023-11-07T08:49:41.701Z,96824.72
2023-11-07T08:53:11.688Z,96823.78
2023-11-07T09:11:56.144Z,96836.63
2023-11-07T09:14:24.952Z,96850.75
2023-11-07T09:16:53.969Z,96844.09
2023-11-07T11:11:18.726Z,96786.56
2023-11-07T11:13:47.600Z,96789.59
2023-11-07T11:16:17.255Z,96790.75
2023-11-07T11:18:50.883Z,96780.59
2023-11-07T11:21:25.331Z,96782.22
2023-11-07T11:23:59.893Z,96783.81
2023-11-07T11:26:40.802Z,96784.50
2023-11-07T11:29:44.437Z,96790.16
2023-11-07T11:32:26.236Z,96791.75
2023-11-07T11:34:59.209Z,96785.16
2023-11-07T11:37:28.713Z,96785.28
2023-11-07T11:39:56.816Z,96784.88
2023-11-07T11:42:26.186Z,96779.13
2023-11-07T11:45:40.270Z,96774.25
2023-11-07T11:48:14.815Z,96766.09
2023-11-07T11:50:47.923Z,96766.66
2023-11-07T11:53:33.751Z,96767.66
2023-11-07T11:56:12.254Z,96767.72
2023-11-07T11:58:45.060Z,96772.19
2023-11-07T12:01:18.185Z,96756.06
2023-11-07T12:10:37.476Z,96768.78
2023-11-07T12:13:06.683Z,96769.41
2023-11-07T12:15:35.539Z,96763.91
2023-11-07T12:18:07.468Z,96766.59
2023-11-07T12:20:43.262Z,96755.22
2023-11-07T12:23:16.218Z,96755.75
2023-11-07T12:25:52.932Z,96757.06
2023-11-07T12:28:21.653Z,96752.66
2023-11-07T12:30:57.112Z,96748.66
2023-11-07T12:33:26.638Z,96746.16
2023-11-07T12:35:56.938Z,96748.31
2023-11-07T12:38:26.338Z,96753.75
2023-11-07T12:40:56.231Z,96749.41
2023-11-07T12:43:24.718Z,96749.84
2023-11-07T12:45:54.213Z,96752.03
2023-11-07T12:48:28.929Z,96746.84
2023-11-07T12:50:57.308Z,96746.56
2023-11-07T12:53:25.621Z,96739.81
2023-11-07T12:55:56.959Z,96735.41
2023-11-07T12:58:30.527Z,96742.13
2023-11-07T13:01:00.847Z,96740.53
2023-11-07T13:03:34.213Z,96738.72
2023-11-07T13:06:05.287Z,96732.22
2023-11-07T13:08:36.631Z,96734.16
2023-11-07T13:11:14.662Z,96743.22
2023-11-07T13:13:44.701Z,96742.22
2023-11-07T13:16:13.617Z,96730.66
2023-11-07T13:18:46.219Z,96741.19
2023-11-07T13:21:15.097Z,96736.31
2023-11-07T13:23:43.525Z,96737.13
2023-11-07T13:26:15.648Z,96722.25
2023-11-07T13:28:45.988Z,96725.28
2023-11-07T13:31:15.667Z,96730.50
2023-11-07T13:33:46.601Z,96725.47
2023-11-07T13:36:16.867Z,96730.25
2023-11-07T13:38:48.194Z,96720.28
2023-11-07T13:41:18.721Z,96724.75
2023-11-07T13:43:47.188Z,96727.78
2023-11-07T13:46:19.741Z,96712.63
2023-11-07T13:48:51.618Z,96711.03
2023-11-07T13:51:22.126Z,96711.03
2023-11-07T13:53:52.611Z,96718.88
2023-11-07T13:56:24.526Z,96715.44
2023-11-07T13:58:54.334Z,96716.66
2023-11-07T14:01:23.533Z,96712.88
2023-11-07T14:03:52.291Z,96711.78
2023-11-07T14:06:22.209Z,96706.75
2023-11-07T14:08:52.167Z,96711.50
2023-11-07T14:11:23.624Z,96709.28
2023-11-07T14:13:53.142Z,96721.59
2023-11-07T14:16:24.115Z,96709.09
2023-11-07T14:18:53.528Z,96708.72
2023-11-07T14:21:22.634Z,96706.75
2023-11-07T14:23:51.133Z,96707.88
2023-11-07T14:26:19.691Z,96703.16
2023-11-07T14:28:58.974Z,96702.19
2023-11-07T14:31:31.642Z,96698.25
2023-11-07T14:34:00.776Z,96704.13
2023-11-07T14:36:30.383Z,96699.84
2023-11-07T14:38:59.579Z,96713.63
2023-11-07T14:41:29.900Z,96714.72
2023-11-07T14:43:59.889Z,96710.75
2023-11-07T14:46:29.723Z,96706.09
2023-11-07T14:48:58.458Z,96713.22
2023-11-07T14:51:27.370Z,96713.22
2023-11-07T14:53:55.980Z,96708.94
2023-11-07T14:56:25.582Z,96712.63
2023-11-07T14:58:54.603Z,96720.34
2023-11-07T15:01:26.264Z,96706.38
2023-11-07T15:03:55.039Z,96713.56
2023-11-07T15:06:28.482Z,96711.53
2023-11-07T15:09:04.241Z,96711.91
2023-11-07T15:11:34.937Z,96707.88
2023-11-07T15:14:03.514Z,96712.06
2023-11-07T15:16:33.547Z,96718.84
2023-11-07T15:19:02.321Z,96719.44
2023-11-07T15:21:31.725Z,96718.47
2023-11-07T15:24:00.570Z,96708.78
2023-11-07T15:26:29.397Z,96716.09
2023-11-07T15:28:59.296Z,96719.16
2023-11-07T15:31:29.680Z,96722.03
2023-11-07T15:34:00.881Z,96722.44
2023-11-07T15:36:30.656Z,96719.63
2023-11-07T15:38:59.125Z,96728.03
2023-11-07T15:41:27.709Z,96729.03
2023-11-07T15:43:57.471Z,96728.59
2023-11-07T15:46:28.087Z,96734.47
2023-11-07T15:48:57.003Z,96735.47
2023-11-07T15:51:28.952Z,96735.28
2023-11-07T15:53:57.838Z,96731.41
2023-11-07T15:56:26.640Z,96729.34
2023-11-07T15:58:55.277Z,96740.28
2023-11-07T16:01:27.688Z,96737.13
2023-11-07T16:03:59.383Z,96745.19
2023-11-07T16:06:29.677Z,96750.63
2023-11-07T16:08:59.626Z,96743.09
2023-11-07T16:11:28.028Z,96745.88
2023-11-07T16:13:56.477Z,96747.28
2023-11-07T16:16:24.840Z,96749.84
2023-11-07T16:18:54.346Z,96745.06
2023-11-07T16:21:24.099Z,96743.25
2023-11-07T16:23:54.331Z,96756.59
2023-11-07T16:26:22.370Z,96750.22
2023-11-07T16:28:53.741Z,96748.63
2023-11-07T16:31:22.418Z,96759.97
2023-11-07T16:33:51.412Z,96754.50
2023-11-07T16:36:21.689Z,96762.75
2023-11-07T16:38:50.301Z,96769.59
2023-11-07T16:41:20.002Z,96774.47
2023-11-07T16:43:49.661Z,96775.47
2023-11-07T16:46:18.729Z,96782.38
2023-11-07T16:48:47.697Z,96778.84
2023-11-07T16:51:17.209Z,96790.00
2023-11-07T16:53:46.523Z,96788.00
2023-11-07T16:56:15.644Z,96787.22
2023-11-07T16:58:45.535Z,96788.00
2023-11-07T17:01:14.012Z,96786.00
2023-11-07T17:03:42.523Z,96788.56
2023-11-07T17:06:11.013Z,96788.97
2023-11-07T17:08:39.862Z,96788.66
2023-11-07T17:11:08.328Z,96790.75
2023-11-07T17:13:36.929Z,96796.53
2023-11-07T17:16:08.498Z,96796.94
2023-11-07T17:18:37.758Z,96807.66
2023-11-07T17:21:07.522Z,96804.59
2023-11-07T17:23:38.521Z,96804.19
2023-11-07T17:26:07.385Z,96806.94
2023-11-07T17:28:35.869Z,96817.97
2023-11-07T17:31:04.554Z,96807.84
2023-11-07T17:33:34.821Z,96812.22
2023-11-07T17:36:03.886Z,96816.00
2023-11-07T17:38:32.445Z,96814.41
2023-11-07T17:41:00.946Z,96812.19
2023-11-07T17:43:29.479Z,96816.84
2023-11-07T17:45:58.142Z,96815.91
2023-11-07T17:48:26.500Z,96814.28
2023-11-07T17:50:56.964Z,96812.25
2023-11-07T17:53:25.387Z,96808.75
2023-11-07T17:55:54.727Z,96819.38
2023-11-07T17:58:24.255Z,96811.84
2023-11-07T18:00:53.067Z,96816.53
2023-11-07T18:03:22.800Z,96812.06
2023-11-07T18:05:51.331Z,96810.25
2023-11-07T18:08:21.595Z,96814.53
2023-11-07T18:10:50.146Z,96821.84
2023-11-07T18:13:18.935Z,96814.09
2023-11-07T18:15:48.379Z,96818.13
2023-11-07T18:18:17.527Z,96825.44
2023-11-07T18:20:46.257Z,96826.59
2023-11-07T18:23:15.947Z,96831.94
2023-11-07T18:25:46.409Z,96833.09
2023-11-07T18:28:15.400Z,96840.59
2023-11-07T18:30:45.111Z,96845.94
2023-11-07T18:33:14.043Z,96854.47
2023-11-07T18:35:42.919Z,96855.63
2023-11-07T18:38:11.741Z,96852.38
2023-11-07T18:40:41.079Z,96848.63
2023-11-07T18:43:12.032Z,96865.25
2023-11-07T18:45:40.799Z,96857.06
2023-11-07T18:48:09.541Z,96869.06
2023-11-07T18:50:38.594Z,96870.69
2023-11-07T18:53:07.527Z,96870.00
2023-11-07T18:55:36.061Z,96875.56
2023-11-07T18:58:04.642Z,96876.09
2023-11-07T19:00:39.800Z,96887.53
2023-11-07T19:03:09.122Z,96888.81
2023-11-07T19:05:38.090Z,96891.88
2023-11-07T19:08:06.690Z,96894.31
2023-11-07T19:10:36.916Z,96910.47
2023-11-07T19:13:07.034Z,96915.25
2023-11-07T19:15:37.240Z,96918.44
2023-11-07T19:18:07.368Z,96925.03
2023-11-07T19:20:36.097Z,96924.09
2023-11-07T19:23:05.365Z,96939.06
2023-11-07T19:25:34.432Z,96934.81
2023-11-07T19:28:03.900Z,96938.31
2023-11-07T19:30:32.966Z,96945.84
2023-11-07T19:33:03.276Z,96946.13
2023-11-07T19:35:33.187Z,96952.16
2023-11-07T19:38:02.056Z,96954.69
2023-11-07T19:40:32.648Z,96945.13
2023-11-07T19:43:02.334Z,96948.00
2023-11-07T19:45:30.954Z,96952.84
2023-11-07T19:47:59.498Z,96957.53
2023-11-07T19:50:29.283Z,96950.28
2023-11-07T19:53:06.464Z,96948.41
2023-11-07T19:55:40.354Z,96959.69
2023-11-07T19:58:09.753Z,96951.63
2023-11-07T20:00:38.484Z,96957.53
2023-11-07T20:03:07.925Z,96956.66
2023-11-07T20:05:40.812Z,96956.84
2023-11-07T20:08:10.972Z,96960.88
2023-11-07T20:10:39.793Z,96960.38
2023-11-07T20:13:08.294Z,96962.41
2023-11-07T20:15:36.763Z,96965.72
2023-11-07T20:18:07.390Z,96966.84
2023-11-07T20:20:37.699Z,96966.84
2023-11-07T20:23:07.375Z,96964.78
2023-11-07T20:25:36.461Z,96970.28
2023-11-07T20:28:06.498Z,96968.19
2023-11-07T20:30:35.015Z,96973.00
2023-11-07T20:33:07.212Z,96981.06
2023-11-07T20:35:40.397Z,96978.91
2023-11-07T20:38:10.222Z,96980.53
2023-11-07T20:40:41.096Z,96973.56
2023-11-07T20:43:10.619Z,96973.31
2023-11-07T20:45:39.555Z,96972.84
2023-11-07T20:48:08.427Z,96975.22
2023-11-07T20:50:38.250Z,96983.47
2023-11-07T20:53:07.048Z,96980.44
2023-11-07T20:55:36.861Z,96990.13
2023-11-07T20:58:06.712Z,96986.41
2023-11-07T21:00:36.468Z,96987.53
2023-11-07T21:03:05.659Z,96986.75
2023-11-07T21:05:34.225Z,96993.91
2023-11-07T21:08:04.209Z,96993.25
2023-11-07T21:10:32.781Z,96996.22
2023-11-07T21:13:02.611Z,96999.50
2023-11-07T21:15:33.077Z,97002.75
2023-11-07T21:18:01.936Z,97011.84
2023-11-07T21:20:30.686Z,97003.63
2023-11-07T21:22:59.841Z,97010.06
2023-11-07T21:25:29.519Z,97006.06
2023-11-07T21:28:00.419Z,97007.19
2023-11-07T21:30:30.091Z,97010.38
2023-11-07T21:33:01.149Z,97009.88
2023-11-07T21:35:30.402Z,97010.41
2023-11-07T21:37:59.329Z,97023.19
2023-11-07T21:40:29.813Z,97013.06
2023-11-07T21:42:59.686Z,97024.84
2023-11-07T21:45:28.314Z,97017.94
2023-11-07T21:47:57.019Z,97020.34
2023-11-07T21:50:25.646Z,97022.44
2023-11-07T21:52:54.867Z,97024.56
2023-11-07T21:55:23.421Z,97019.28
2023-11-07T21:57:53.966Z,97022.19
2023-11-07T22:00:22.311Z,97024.06
2023-11-07T22:02:51.485Z,97027.81
2023-11-07T22:05:21.239Z,97030.50
2023-11-07T22:07:51.569Z,97024.38
2023-11-07T22:10:20.795Z,97038.31
2023-11-07T22:12:49.680Z,97037.22
2023-11-07T22:15:19.850Z,97043.66
2023-11-07T22:17:48.687Z,97049.00
2023-11-07T22:20:17.664Z,97049.50
2023-11-07T22:22:47.622Z,97047.09
2023-11-07T22:25:16.474Z,97054.53
2023-11-07T22:27:45.591Z,97055.38
2023-11-07T22:30:14.587Z,97048.72
2023-11-07T22:32:45.446Z,97062.03
2023-11-07T22:35:15.672Z,97060.72
2023-11-07T22:37:44.918Z,97060.47
2023-11-07T22:40:14.188Z,97054.34
2023-11-07T22:42:42.597Z,97052.19
2023-11-07T22:45:12.503Z,97051.69
2023-11-07T22:47:41.426Z,97055.41
2023-11-07T22:50:12.292Z,97059.09
2023-11-07T22:52:42.157Z,97058.63
2023-11-07T22:55:12.369Z,97070.59
2023-11-07T22:57:41.300Z,97063.16
2023-11-07T23:00:12.083Z,97064.75
2023-11-07T23:02:40.937Z,97071.94
2023-11-07T23:05:12.089Z,97069.81
2023-11-07T23:07:41.007Z,97070.31
2023-11-07T23:10:11.509Z,97076.50
2023-11-07T23:12:40.372Z,97075.44
2023-11-07T23:15:12.548Z,97080.50
2023-11-07T23:17:41.575Z,97072.50
2023-11-07T23:20:13.722Z,97075.44
2023-11-07T23:22:43.167Z,97074.63
2023-11-07T23:25:12.439Z,97079.16
2023-11-07T23:27:41.660Z,97074.63
2023-11-07T23:30:10.733Z,97075.41
2023-11-07T23:32:39.551Z,97080.78
2023-11-07T23:35:09.548Z,97076.22
2023-11-07T23:37:39.797Z,97081.00
2023-11-07T23:40:12.025Z,97088.50
2023-11-07T23:42:42.886Z,97088.50
2023-11-07T23:45:12.416Z,97083.16
2023-11-07T23:47:42.982Z,97086.91
2023-11-07T23:50:12.268Z,97087.69
2023-11-07T23:52:42.417Z,97078.31
2023-11-07T23:55:11.061Z,97074.34
2023-11-07T23:57:39.862Z,97077.81
